sensor_id;sensor_type;location;lat;lon;timestamp;pressure;altitude;pressure_sealevel;temperature;humidity
50550;BME280;36505;52.512;13.460;2022-10-31T00:01:30;101330.09;;;12.86;92.92
50550;BME280;36505;52.512;13.460;2022-10-31T00:03:56;101338.81;;;12.83;92.83
50550;BME280;36505;52.512;13.460;2022-10-31T00:06:22;101340.16;;;12.81;93.35
50550;BME280;36505;52.512;13.460;2022-10-31T00:08:53;101338.72;;;12.78;93.45
50550;BME280;36505;52.512;13.460;2022-10-31T00:11:19;101338.13;;;12.76;93.22
50550;BME280;36505;52.512;13.460;2022-10-31T00:13:44;101341.16;;;12.75;93.18
50550;BME280;36505;52.512;13.460;2022-10-31T00:16:17;101340.22;;;12.69;93.09
50550;BME280;36505;52.512;13.460;2022-10-31T00:18:42;101344.63;;;12.70;93.18
50550;BME280;36505;52.512;13.460;2022-10-31T00:21:08;101338.78;;;12.66;93.33
50550;BME280;36505;52.512;13.460;2022-10-31T00:23:33;101340.94;;;12.64;93.43
50550;BME280;36505;52.512;13.460;2022-10-31T00:26:03;101348.34;;;12.64;93.61
50550;BME280;36505;52.512;13.460;2022-10-31T00:28:29;101351.31;;;12.62;93.39
50550;BME280;36505;52.512;13.460;2022-10-31T00:30:58;101357.66;;;12.63;93.56
50550;BME280;36505;52.512;13.460;2022-10-31T00:33:24;101346.09;;;12.61;93.66
50550;BME280;36505;52.512;13.460;2022-10-31T00:35:50;101349.31;;;12.58;93.25
50550;BME280;36505;52.512;13.460;2022-10-31T00:38:16;101344.66;;;12.58;92.93
50550;BME280;36505;52.512;13.460;2022-10-31T00:40:41;101348.72;;;12.56;92.90
50550;BME280;36505;52.512;13.460;2022-10-31T00:43:06;101352.78;;;12.53;92.83
50550;BME280;36505;52.512;13.460;2022-10-31T00:45:31;101357.47;;;12.53;92.86
50550;BME280;36505;52.512;13.460;2022-10-31T00:47:57;101363.78;;;12.53;93.02
50550;BME280;36505;52.512;13.460;2022-10-31T00:50:22;101360.44;;;12.51;93.06
50550;BME280;36505;52.512;13.460;2022-10-31T00:52:47;101370.59;;;12.51;92.99
50550;BME280;36505;52.512;13.460;2022-10-31T00:55:13;101358.19;;;12.48;93.18
50550;BME280;36505;52.512;13.460;2022-10-31T00:57:38;101371.94;;;12.48;93.37
50550;BME280;36505;52.512;13.460;2022-10-31T01:00:04;101363.81;;;12.42;93.42
50550;BME280;36505;52.512;13.460;2022-10-31T01:02:29;101373.13;;;12.41;93.79
50550;BME280;36505;52.512;13.460;2022-10-31T01:04:55;101375.50;;;12.37;93.85
50550;BME280;36505;52.512;13.460;2022-10-31T01:07:20;101379.94;;;12.38;93.91
50550;BME280;36505;52.512;13.460;2022-10-31T01:09:45;101372.75;;;12.37;93.93
50550;BME280;36505;52.512;13.460;2022-10-31T01:12:11;101373.84;;;12.36;93.75
50550;BME280;36505;52.512;13.460;2022-10-31T01:14:36;101375.75;;;12.36;93.75
50550;BME280;36505;52.512;13.460;2022-10-31T01:17:01;101382.34;;;12.35;93.62
50550;BME280;36505;52.512;13.460;2022-10-31T01:19:27;101382.91;;;12.37;93.57
50550;BME280;36505;52.512;13.460;2022-10-31T01:21:54;101383.63;;;12.32;93.50
50550;BME280;36505;52.512;13.460;2022-10-31T01:24:20;101382.34;;;12.35;93.72
50550;BME280;36505;52.512;13.460;2022-10-31T01:26:45;101384.81;;;12.36;93.55
50550;BME280;36505;52.512;13.460;2022-10-31T01:29:11;101372.16;;;12.35;93.16
50550;BME280;36505;52.512;13.460;2022-10-31T01:31:38;101378.50;;;12.36;93.18
50550;BME280;36505;52.512;13.460;2022-10-31T01:34:04;101376.56;;;12.36;93.23
50550;BME280;36505;52.512;13.460;2022-10-31T01:36:37;101373.50;;;12.33;93.01
50550;BME280;36505;52.512;13.460;2022-10-31T01:39:05;101385.53;;;12.32;93.04
50550;BME280;36505;52.512;13.460;2022-10-31T01:41:33;101380.28;;;12.30;93.17
50550;BME280;36505;52.512;13.460;2022-10-31T01:46:45;101389.13;;;12.32;93.26
50550;BME280;36505;52.512;13.460;2022-10-31T01:49:17;101386.16;;;12.34;93.52
50550;BME280;36505;52.512;13.460;2022-10-31T01:51:48;101381.72;;;12.33;93.40
50550;BME280;36505;52.512;13.460;2022-10-31T01:54:17;101379.31;;;12.36;93.50
50550;BME280;36505;52.512;13.460;2022-10-31T01:56:48;101381.22;;;12.36;93.51
50550;BME280;36505;52.512;13.460;2022-10-31T01:59:16;101383.75;;;12.37;93.84
50550;BME280;36505;52.512;13.460;2022-10-31T02:01:44;101394.50;;;12.39;93.84
50550;BME280;36505;52.512;13.460;2022-10-31T02:04:09;101390.69;;;12.40;93.62
50550;BME280;36505;52.512;13.460;2022-10-31T02:06:43;101397.84;;;12.41;93.37
50550;BME280;36505;52.512;13.460;2022-10-31T02:09:12;101395.09;;;12.41;93.14
50550;BME280;36505;52.512;13.460;2022-10-31T02:11:39;101388.28;;;12.43;93.27
50550;BME280;36505;52.512;13.460;2022-10-31T02:14:06;101395.94;;;12.41;93.17
50550;BME280;36505;52.512;13.460;2022-10-31T02:16:31;101396.50;;;12.43;93.39
50550;BME280;36505;52.512;13.460;2022-10-31T02:18:57;101399.25;;;12.43;93.45
50550;BME280;36505;52.512;13.460;2022-10-31T02:29:45;101391.84;;;12.44;93.31
50550;BME280;36505;52.512;13.460;2022-10-31T02:32:42;101385.53;;;12.43;93.41
50550;BME280;36505;52.512;13.460;2022-10-31T02:37:51;101390.19;;;12.43;93.53
50550;BME280;36505;52.512;13.460;2022-10-31T02:40:26;101381.59;;;12.39;93.31
50550;BME280;36505;52.512;13.460;2022-10-31T02:45:58;101393.44;;;12.40;93.50
50550;BME280;36505;52.512;13.460;2022-10-31T02:48:28;101389.84;;;12.39;93.49
50550;BME280;36505;52.512;13.460;2022-10-31T02:50:58;101391.75;;;12.39;93.36
50550;BME280;36505;52.512;13.460;2022-10-31T02:53:24;101389.25;;;12.37;93.43
50550;BME280;36505;52.512;13.460;2022-10-31T02:56:04;101395.56;;;12.38;93.55
50550;BME280;36505;52.512;13.460;2022-10-31T02:58:34;101396.63;;;12.37;93.48
50550;BME280;36505;52.512;13.460;2022-10-31T03:06:19;101410.03;;;12.33;93.23
50550;BME280;36505;52.512;13.460;2022-10-31T03:11:44;101405.84;;;12.31;93.37
50550;BME280;36505;52.512;13.460;2022-10-31T03:14:52;101411.84;;;12.27;93.28
50550;BME280;36505;52.512;13.460;2022-10-31T03:17:22;101405.72;;;12.25;93.19
50550;BME280;36505;52.512;13.460;2022-10-31T03:19:53;101418.84;;;12.23;93.02
50550;BME280;36505;52.512;13.460;2022-10-31T03:22:21;101418.84;;;12.23;93.16
50550;BME280;36505;52.512;13.460;2022-10-31T03:24:48;101408.94;;;12.22;93.17
50550;BME280;36505;52.512;13.460;2022-10-31T03:27:20;101418.50;;;12.20;93.10
50550;BME280;36505;52.512;13.460;2022-10-31T03:29:49;101417.69;;;12.19;93.14
50550;BME280;36505;52.512;13.460;2022-10-31T03:32:22;101431.41;;;12.19;93.22
50550;BME280;36505;52.512;13.460;2022-10-31T03:34:49;101432.47;;;12.18;93.20
50550;BME280;36505;52.512;13.460;2022-10-31T03:37:18;101434.16;;;12.19;93.28
50550;BME280;36505;52.512;13.460;2022-10-31T03:39:45;101432.47;;;12.18;93.12
50550;BME280;36505;52.512;13.460;2022-10-31T03:42:20;101431.63;;;12.18;93.18
50550;BME280;36505;52.512;13.460;2022-10-31T03:44:52;101438.81;;;12.19;93.20
50550;BME280;36505;52.512;13.460;2022-10-31T03:47:18;101441.31;;;12.20;93.29
50550;BME280;36505;52.512;13.460;2022-10-31T03:49:44;101442.38;;;12.19;93.35
50550;BME280;36505;52.512;13.460;2022-10-31T03:54:46;101446.44;;;12.17;93.11
50550;BME280;36505;52.512;13.460;2022-10-31T03:57:18;101443.69;;;12.17;93.44
50550;BME280;36505;52.512;13.460;2022-10-31T04:00:00;101452.75;;;12.17;93.50
50550;BME280;36505;52.512;13.460;2022-10-31T04:02:30;101452.53;;;12.19;93.70
50550;BME280;36505;52.512;13.460;2022-10-31T04:04:58;101448.94;;;12.18;93.78
50550;BME280;36505;52.512;13.460;2022-10-31T04:07:26;101446.44;;;12.17;93.56
50550;BME280;36505;52.512;13.460;2022-10-31T04:09:53;101447.28;;;12.17;93.37
50550;BME280;36505;52.512;13.460;2022-10-31T04:12:19;101450.84;;;12.18;93.61
50550;BME280;36505;52.512;13.460;2022-10-31T04:14:48;101448.09;;;12.18;93.46
50550;BME280;36505;52.512;13.460;2022-10-31T04:17:17;101447.28;;;12.17;93.51
50550;BME280;36505;52.512;13.460;2022-10-31T04:19:44;101457.41;;;12.17;93.45
50550;BME280;36505;52.512;13.460;2022-10-31T04:22:09;101457.19;;;12.18;93.44
50550;BME280;36505;52.512;13.460;2022-10-31T04:24:36;101467.94;;;12.20;93.49
50550;BME280;36505;52.512;13.460;2022-10-31T04:27:03;101463.28;;;12.20;93.54
50550;BME280;36505;52.512;13.460;2022-10-31T04:29:28;101464.13;;;12.21;93.77
50550;BME280;36505;52.512;13.460;2022-10-31T04:31:53;101466.03;;;12.20;93.81
50550;BME280;36505;52.512;13.460;2022-10-31T04:34:19;101463.28;;;12.20;93.65
50550;BME280;36505;52.512;13.460;2022-10-31T04:36:45;101463.28;;;12.20;93.72
50550;BME280;36505;52.512;13.460;2022-10-31T04:39:10;101464.13;;;12.21;93.48
50550;BME280;36505;52.512;13.460;2022-10-31T04:41:35;101466.88;;;12.21;93.60
50550;BME280;36505;52.512;13.460;2022-10-31T04:44:01;101477.59;;;12.22;93.54
50550;BME280;36505;52.512;13.460;2022-10-31T04:46:26;101475.69;;;12.23;93.54
50550;BME280;36505;52.512;13.460;2022-10-31T04:48:51;101474.00;;;12.22;93.57
50550;BME280;36505;52.512;13.460;2022-10-31T04:51:17;101479.25;;;12.23;93.54
50550;BME280;36505;52.512;13.460;2022-10-31T04:53:42;101476.53;;;12.23;93.42
50550;BME280;36505;52.512;13.460;2022-10-31T04:56:07;101471.25;;;12.22;93.37
50550;BME280;36505;52.512;13.460;2022-10-31T04:58:32;101475.91;;;12.21;93.51
50550;BME280;36505;52.512;13.460;2022-10-31T05:00:58;101477.00;;;12.20;93.63
50550;BME280;36505;52.512;13.460;2022-10-31T05:03:23;101469.84;;;12.19;93.60
50550;BME280;36505;52.512;13.460;2022-10-31T05:05:49;101470.91;;;12.18;93.51
50550;BME280;36505;52.512;13.460;2022-10-31T05:08:14;101465.41;;;12.18;93.76
50550;BME280;36505;52.512;13.460;2022-10-31T05:10:40;101484.63;;;12.18;93.96
50550;BME280;36505;52.512;13.460;2022-10-31T05:13:05;101479.38;;;12.17;94.19
50550;BME280;36505;52.512;13.460;2022-10-31T05:15:31;101479.38;;;12.17;94.00
50550;BME280;36505;52.512;13.460;2022-10-31T05:17:57;101476.03;;;12.15;94.18
50550;BME280;36505;52.512;13.460;2022-10-31T05:20:27;101488.47;;;12.17;94.08
50550;BME280;36505;52.512;13.460;2022-10-31T05:22:55;101477.47;;;12.17;93.91
50550;BME280;36505;52.512;13.460;2022-10-31T05:25:22;101481.91;;;12.18;93.64
50550;BME280;36505;52.512;13.460;2022-10-31T05:27:49;101483.56;;;12.19;93.51
50550;BME280;36505;52.512;13.460;2022-10-31T05:30:23;101491.81;;;12.19;93.71
50550;BME280;36505;52.512;13.460;2022-10-31T05:32:50;101490.75;;;12.20;93.77
50550;BME280;36505;52.512;13.460;2022-10-31T05:35:18;101493.22;;;12.22;93.86
50550;BME280;36505;52.512;13.460;2022-10-31T05:37:44;101494.06;;;12.22;93.83
50550;BME280;36505;52.512;13.460;2022-10-31T05:40:11;101497.06;;;12.21;93.77
50550;BME280;36505;52.512;13.460;2022-10-31T05:42:41;101495.97;;;12.22;93.64
50550;BME280;36505;52.512;13.460;2022-10-31T05:45:12;101498.72;;;12.22;93.70
50550;BME280;36505;52.512;13.460;2022-10-31T05:47:38;101495.97;;;12.22;93.56
50550;BME280;36505;52.512;13.460;2022-10-31T05:50:04;101500.63;;;12.21;93.45
50550;BME280;36505;52.512;13.460;2022-10-31T05:52:30;101498.97;;;12.20;93.69
50550;BME280;36505;52.512;13.460;2022-10-31T05:54:55;101505.03;;;12.22;93.73
50550;BME280;36505;52.512;13.460;2022-10-31T05:57:20;101502.06;;;12.24;93.61
50550;BME280;36505;52.512;13.460;2022-10-31T05:59:45;101496.56;;;12.24;93.45
50550;BME280;36505;52.512;13.460;2022-10-31T06:02:11;101499.09;;;12.25;93.36
50550;BME280;36505;52.512;13.460;2022-10-31T06:04:36;101506.25;;;12.26;93.43
50550;BME280;36505;52.512;13.460;2022-10-31T06:07:01;101506.25;;;12.26;93.51
50550;BME280;36505;52.512;13.460;2022-10-31T06:09:27;101515.91;;;12.29;93.61
50550;BME280;36505;52.512;13.460;2022-10-31T06:11:52;101509.34;;;12.30;93.57
50550;BME280;36505;52.512;13.460;2022-10-31T06:14:17;101513.56;;;12.33;93.61
50550;BME280;36505;52.512;13.460;2022-10-31T06:16:43;101517.72;;;12.35;93.43
50550;BME280;36505;52.512;13.460;2022-10-31T06:19:08;101518.09;;;12.39;93.32
50550;BME280;36505;52.512;13.460;2022-10-31T06:21:33;101516.28;;;12.44;93.23
50550;BME280;36505;52.512;13.460;2022-10-31T06:23:59;101516.06;;;12.46;93.37
50550;BME280;36505;52.512;13.460;2022-10-31T06:26:24;101514.03;;;12.53;93.23
50550;BME280;36505;52.512;13.460;2022-10-31T06:28:49;101516.91;;;12.58;92.87
50550;BME280;36505;52.512;13.460;2022-10-31T06:31:15;101522.75;;;12.73;92.59
50550;BME280;36505;52.512;13.460;2022-10-31T06:33:41;101523.94;;;12.89;92.23
50550;BME280;36505;52.512;13.460;2022-10-31T06:36:07;101523.19;;;13.05;91.52
50550;BME280;36505;52.512;13.460;2022-10-31T06:38:32;101523.78;;;13.19;90.47
50550;BME280;36505;52.512;13.460;2022-10-31T06:40:57;101532.59;;;13.44;89.90
50550;BME280;36505;52.512;13.460;2022-10-31T06:43:23;101530.81;;;13.66;88.50
50550;BME280;36505;52.512;13.460;2022-10-31T06:45:48;101539.22;;;13.88;87.52
50550;BME280;36505;52.512;13.460;2022-10-31T06:48:13;101535.50;;;14.11;86.57
50550;BME280;36505;52.512;13.460;2022-10-31T06:50:39;101538.09;;;14.34;85.21
50550;BME280;36505;52.512;13.460;2022-10-31T06:53:04;101543.47;;;14.57;83.89
50550;BME280;36505;52.512;13.460;2022-10-31T06:55:30;101547.03;;;14.75;83.18
50550;BME280;36505;52.512;13.460;2022-10-31T06:57:59;101546.84;;;14.81;81.81
50550;BME280;36505;52.512;13.460;2022-10-31T07:00:27;101548.41;;;14.72;81.84
50550;BME280;36505;52.512;13.460;2022-10-31T07:03:01;101550.50;;;15.03;80.80
50550;BME280;36505;52.512;13.460;2022-10-31T07:05:28;101556.00;;;15.42;79.67
50550;BME280;36505;52.512;13.460;2022-10-31T07:07:58;101555.66;;;15.82;78.06
50550;BME280;36505;52.512;13.460;2022-10-31T07:10:25;101557.06;;;16.11;76.61
50550;BME280;36505;52.512;13.460;2022-10-31T07:12:55;101563.59;;;16.32;75.78
50550;BME280;36505;52.512;13.460;2022-10-31T07:15:21;101566.00;;;16.50;74.58
50550;BME280;36505;52.512;13.460;2022-10-31T07:17:46;101566.50;;;16.79;73.72
50550;BME280;36505;52.512;13.460;2022-10-31T07:20:12;101560.00;;;17.01;72.54
50550;BME280;36505;52.512;13.460;2022-10-31T07:22:37;101564.53;;;17.17;72.72
50550;BME280;36505;52.512;13.460;2022-10-31T07:25:03;101563.81;;;17.36;71.84
50550;BME280;36505;52.512;13.460;2022-10-31T07:27:28;101574.75;;;17.68;69.79
50550;BME280;36505;52.512;13.460;2022-10-31T07:29:53;101570.47;;;18.08;67.88
50550;BME280;36505;52.512;13.460;2022-10-31T07:32:19;101558.84;;;18.46;67.23
50550;BME280;36505;52.512;13.460;2022-10-31T07:34:44;101560.25;;;18.74;67.77
50550;BME280;36505;52.512;13.460;2022-10-31T07:37:09;101566.63;;;18.80;67.47
50550;BME280;36505;52.512;13.460;2022-10-31T07:39:35;101565.81;;;18.74;67.17
50550;BME280;36505;52.512;13.460;2022-10-31T07:42:00;101573.50;;;19.08;65.78
50550;BME280;36505;52.512;13.460;2022-10-31T07:44:25;101574.59;;;19.22;64.96
50550;BME280;36505;52.512;13.460;2022-10-31T07:46:50;101578.69;;;19.50;63.99
50550;BME280;36505;52.512;13.460;2022-10-31T07:49:16;101573.66;;;19.57;63.83
50550;BME280;36505;52.512;13.460;2022-10-31T07:51:41;101586.34;;;19.78;62.59
50550;BME280;36505;52.512;13.460;2022-10-31T07:54:06;101584.63;;;19.92;62.34
50550;BME280;36505;52.512;13.460;2022-10-31T07:56:32;101590.09;;;20.02;62.47
50550;BME280;36505;52.512;13.460;2022-10-31T07:58:57;101586.31;;;20.27;61.07
50550;BME280;36505;52.512;13.460;2022-10-31T08:01:22;101588.94;;;20.08;60.97
50550;BME280;36505;52.512;13.460;2022-10-31T08:03:48;101593.22;;;19.91;60.94
50550;BME280;36505;52.512;13.460;2022-10-31T08:06:13;101600.22;;;19.83;61.72
50550;BME280;36505;52.512;13.460;2022-10-31T08:08:38;101602.78;;;19.69;62.21
50550;BME280;36505;52.512;13.460;2022-10-31T08:11:04;101604.78;;;19.39;62.95
50550;BME280;36505;52.512;13.460;2022-10-31T08:13:29;101599.34;;;19.08;63.95
50550;BME280;36505;52.512;13.460;2022-10-31T08:15:54;101596.03;;;18.96;64.34
50550;BME280;36505;52.512;13.460;2022-10-31T08:18:20;101604.63;;;18.79;64.63
50550;BME280;36505;52.512;13.460;2022-10-31T08:20:48;101591.28;;;18.51;65.88
50550;BME280;36505;52.512;13.460;2022-10-31T08:23:14;101602.09;;;18.27;66.78
50550;BME280;36505;52.512;13.460;2022-10-31T08:25:40;101603.19;;;18.21;67.16
50550;BME280;36505;52.512;13.460;2022-10-31T08:28:06;101606.75;;;18.16;67.56
50550;BME280;36505;52.512;13.460;2022-10-31T08:30:33;101604.81;;;18.07;67.89
50550;BME280;36505;52.512;13.460;2022-10-31T08:33:04;101603.66;;;17.93;67.94
50550;BME280;36505;52.512;13.460;2022-10-31T08:35:32;101617.22;;;17.84;68.46
50550;BME280;36505;52.512;13.460;2022-10-31T08:37:58;101618.53;;;17.66;68.94
50550;BME280;36505;52.512;13.460;2022-10-31T08:40:25;101614.06;;;17.60;69.04
50550;BME280;36505;52.512;13.460;2022-10-31T08:43:02;101612.34;;;17.54;69.45
50550;BME280;36505;52.512;13.460;2022-10-31T08:45:29;101624.63;;;17.68;68.94
50550;BME280;36505;52.512;13.460;2022-10-31T08:48:05;101614.75;;;17.98;68.07
50550;BME280;36505;52.512;13.460;2022-10-31T08:50:33;101599.34;;;18.98;64.68
50550;BME280;36505;52.512;13.460;2022-10-31T08:53:13;101601.50;;;19.26;63.56
50550;BME280;36505;52.512;13.460;2022-10-31T08:55:40;101600.91;;;19.45;62.96
50550;BME280;36505;52.512;13.460;2022-10-31T08:58:09;101596.47;;;19.39;63.00
50550;BME280;36505;52.512;13.460;2022-10-31T09:00:35;101600.34;;;19.48;62.30
50550;BME280;36505;52.512;13.460;2022-10-31T09:03:06;101604.13;;;19.77;61.63
50550;BME280;36505;52.512;13.460;2022-10-31T09:05:32;101607.75;;;19.78;61.46
50550;BME280;36505;52.512;13.460;2022-10-31T09:07:58;101609.06;;;19.90;60.59
50550;BME280;36505;52.512;13.460;2022-10-31T09:10:25;101615.50;;;20.30;59.36
50550;BME280;36505;52.512;13.460;2022-10-31T09:12:58;101610.09;;;20.48;58.93
50550;BME280;36505;52.512;13.460;2022-10-31T09:15:25;101615.66;;;20.87;58.32
50550;BME280;36505;52.512;13.460;2022-10-31T09:17:50;101615.69;;;20.82;58.38
50550;BME280;36505;52.512;13.460;2022-10-31T09:20:16;101618.63;;;20.67;58.00
50550;BME280;36505;52.512;13.460;2022-10-31T09:22:41;101625.31;;;20.61;57.71
50550;BME280;36505;52.512;13.460;2022-10-31T09:25:07;101636.06;;;20.39;58.68
50550;BME280;36505;52.512;13.460;2022-10-31T09:27:32;101630.56;;;20.24;59.14
50550;BME280;36505;52.512;13.460;2022-10-31T09:29:58;101629.91;;;20.42;59.27
50550;BME280;36505;52.512;13.460;2022-10-31T09:32:23;101634.75;;;20.99;57.10
50550;BME280;36505;52.512;13.460;2022-10-31T09:34:48;101633.69;;;21.24;56.36
50550;BME280;36505;52.512;13.460;2022-10-31T09:37:14;101638.50;;;21.66;55.57
50550;BME280;36505;52.512;13.460;2022-10-31T09:39:39;101644.00;;;21.95;54.65
50550;BME280;36505;52.512;13.460;2022-10-31T09:48:15;101634.44;;;22.95;51.98
50550;BME280;36505;52.512;13.460;2022-10-31T09:50:24;101640.06;;;23.08;51.29
50550;BME280;36505;52.512;13.460;2022-10-31T09:53:00;101649.50;;;22.61;51.98
50550;BME280;36505;52.512;13.460;2022-10-31T09:55:34;101642.69;;;22.11;53.19
50550;BME280;36505;52.512;13.460;2022-10-31T09:58:00;101642.81;;;21.77;54.28
50550;BME280;36505;52.512;13.460;2022-10-31T10:00:26;101642.94;;;21.43;55.16
50550;BME280;36505;52.512;13.460;2022-10-31T10:03:12;101646.28;;;20.87;57.04
50550;BME280;36505;52.512;13.460;2022-10-31T10:05:51;101640.03;;;20.67;58.01
50550;BME280;36505;52.512;13.460;2022-10-31T10:08:22;101635.13;;;20.87;57.54
50550;BME280;36505;52.512;13.460;2022-10-31T10:16:03;101640.66;;;22.54;52.98
50550;BME280;36505;52.512;13.460;2022-10-31T10:18:51;101624.53;;;23.02;51.20
50550;BME280;36505;52.512;13.460;2022-10-31T10:21:48;101634.03;;;23.34;50.36
50550;BME280;36505;52.512;13.460;2022-10-31T10:32:25;101612.09;;;22.06;53.07
50550;BME280;36505;52.512;13.460;2022-10-31T10:36:26;101612.25;;;21.48;54.79
50550;BME280;36505;52.512;13.460;2022-10-31T10:40:52;101604.94;;;20.71;57.71
50550;BME280;36505;52.512;13.460;2022-10-31T10:45:53;101600.81;;;21.26;56.29
50550;BME280;36505;52.512;13.460;2022-10-31T10:48:58;101597.22;;;21.49;55.43
50550;BME280;36505;52.512;13.460;2022-10-31T10:59:21;101601.94;;;21.91;54.48
50550;BME280;36505;52.512;13.460;2022-10-31T11:01:49;101607.38;;;21.83;54.43
50550;BME280;36505;52.512;13.460;2022-10-31T11:04:31;101603.19;;;21.61;55.18
50550;BME280;36505;52.512;13.460;2022-10-31T11:07:08;101608.75;;;21.61;55.48
50550;BME280;36505;52.512;13.460;2022-10-31T11:09:34;101608.34;;;21.49;55.70
50550;BME280;36505;52.512;13.460;2022-10-31T11:12:08;101598.72;;;21.37;56.52
50550;BME280;36505;52.512;13.460;2022-10-31T11:14:42;101604.06;;;21.33;56.56
50550;BME280;36505;52.512;13.460;2022-10-31T11:17:20;101587.56;;;21.13;57.32
50550;BME280;36505;52.512;13.460;2022-10-31T11:19:47;101592.50;;;20.92;58.10
50550;BME280;36505;52.512;13.460;2022-10-31T11:22:16;101595.69;;;20.75;58.76
50550;BME280;36505;52.512;13.460;2022-10-31T11:24:43;101584.41;;;20.62;59.18
50550;BME280;36505;52.512;13.460;2022-10-31T11:27:23;101582.22;;;20.59;59.33
50550;BME280;36505;52.512;13.460;2022-10-31T11:29:50;101584.13;;;20.63;58.77
50550;BME280;36505;52.512;13.460;2022-10-31T11:32:33;101584.84;;;20.45;59.33
50550;BME280;36505;52.512;13.460;2022-10-31T11:35:02;101583.22;;;20.39;59.50
50550;BME280;36505;52.512;13.460;2022-10-31T11:37:35;101582.19;;;20.25;59.90
50550;BME280;36505;52.512;13.460;2022-10-31T11:40:05;101576.66;;;20.15;60.54
50550;BME280;36505;52.512;13.460;2022-10-31T11:42:39;101575.63;;;20.05;60.55
50550;BME280;36505;52.512;13.460;2022-10-31T11:45:15;101579.09;;;19.82;61.66
50550;BME280;36505;52.512;13.460;2022-10-31T11:47:50;101577.22;;;19.67;61.94
50550;BME280;36505;52.512;13.460;2022-10-31T11:50:30;101570.31;;;19.65;62.46
50550;BME280;36505;52.512;13.460;2022-10-31T11:52:56;101580.88;;;19.58;62.75
50550;BME280;36505;52.512;13.460;2022-10-31T11:55:36;101565.59;;;19.45;62.96
50550;BME280;36505;52.512;13.460;2022-10-31T11:58:02;101579.78;;;19.39;63.59
50550;BME280;36505;52.512;13.460;2022-10-31T12:05:42;101573.75;;;19.11;65.17
50550;BME280;36505;52.512;13.460;2022-10-31T12:08:11;101567.41;;;19.01;65.74
50550;BME280;36505;52.512;13.460;2022-10-31T12:13:36;101559.66;;;18.92;66.00
50550;BME280;36505;52.512;13.460;2022-10-31T12:18:48;101559.38;;;18.84;66.58
50550;BME280;36505;52.512;13.460;2022-10-31T12:24:23;101559.13;;;18.80;67.45
50550;BME280;36505;52.512;13.460;2022-10-31T12:32:24;101551.63;;;18.71;67.74
50550;BME280;36505;52.512;13.460;2022-10-31T12:34:58;101555.00;;;18.68;67.92
50550;BME280;36505;52.512;13.460;2022-10-31T12:37:47;101546.38;;;18.64;67.64
50550;BME280;36505;52.512;13.460;2022-10-31T12:43:02;101542.78;;;18.59;67.96
50550;BME280;36505;52.512;13.460;2022-10-31T12:45:53;101538.59;;;18.56;68.14
50550;BME280;36505;52.512;13.460;2022-10-31T12:48:58;101532.78;;;18.52;68.20
50550;BME280;36505;52.512;13.460;2022-10-31T12:54:30;101536.66;;;18.46;68.43
50550;BME280;36505;52.512;13.460;2022-10-31T12:57:24;101533.31;;;18.44;68.47
50550;BME280;36505;52.512;13.460;2022-10-31T13:00:11;101532.22;;;18.40;68.77
50550;BME280;36505;52.512;13.460;2022-10-31T13:05:40;101537.22;;;18.38;68.54
50550;BME280;36505;52.512;13.460;2022-10-31T13:08:21;101531.66;;;18.38;68.93
50550;BME280;36505;52.512;13.460;2022-10-31T13:11:10;101542.47;;;18.40;68.88
50550;BME280;36505;52.512;13.460;2022-10-31T13:13:42;101531.66;;;18.38;69.34
50550;BME280;36505;52.512;13.460;2022-10-31T13:16:14;101529.16;;;18.37;69.52
50550;BME280;36505;52.512;13.460;2022-10-31T13:18:43;101527.78;;;18.34;70.17
50550;BME280;36505;52.512;13.460;2022-10-31T13:21:22;101528.91;;;18.33;69.71
50550;BME280;36505;52.512;13.460;2022-10-31T13:23:50;101519.75;;;18.28;69.68
50550;BME280;36505;52.512;13.460;2022-10-31T13:26:42;101527.22;;;18.22;69.91
50550;BME280;36505;52.512;13.460;2022-10-31T13:29:24;101524.75;;;18.21;69.89
50550;BME280;36505;52.512;13.460;2022-10-31T13:31:55;101516.13;;;18.17;70.02
50550;BME280;36505;52.512;13.460;2022-10-31T13:34:31;101523.34;;;18.18;70.48
50550;BME280;36505;52.512;13.460;2022-10-31T13:37:17;101517.53;;;18.14;70.06
50550;BME280;36505;52.512;13.460;2022-10-31T13:42:52;101513.91;;;18.09;70.27
50550;BME280;36505;52.512;13.460;2022-10-31T13:45:22;101520.00;;;18.06;70.46
50550;BME280;36505;52.512;13.460;2022-10-31T13:47:59;101511.13;;;18.04;70.42
50550;BME280;36505;52.512;13.460;2022-10-31T13:50:30;101509.75;;;18.01;70.95
50550;BME280;36505;52.512;13.460;2022-10-31T13:53:14;101506.97;;;17.96;71.10
50550;BME280;36505;52.512;13.460;2022-10-31T13:55:46;101505.28;;;17.95;71.32
50550;BME280;36505;52.512;13.460;2022-10-31T13:58:26;101507.78;;;17.92;71.67
50550;BME280;36505;52.512;13.460;2022-10-31T14:01:04;101503.63;;;17.89;71.77
50550;BME280;36505;52.512;13.460;2022-10-31T14:03:36;101504.47;;;17.85;71.76
50550;BME280;36505;52.512;13.460;2022-10-31T14:06:03;101496.41;;;17.78;71.82
50550;BME280;36505;52.512;13.460;2022-10-31T14:08:33;101501.13;;;17.77;72.25
50550;BME280;36505;52.512;13.460;2022-10-31T14:10:59;101502.78;;;17.73;72.25
50550;BME280;36505;52.512;13.460;2022-10-31T14:16:03;101499.97;;;17.68;72.64
50550;BME280;36505;52.512;13.460;2022-10-31T14:18:32;101494.44;;;17.63;72.47
50550;BME280;36505;52.512;13.460;2022-10-31T14:20:58;101492.19;;;17.60;73.22
50550;BME280;36505;52.512;13.460;2022-10-31T14:28:43;101493.81;;;17.51;73.18
50550;BME280;36505;52.512;13.460;2022-10-31T14:31:29;101493.25;;;17.49;73.63